APL Coral — WDF6832 — position and weather

sailwx.info

Track history (hours):
 
Tides and Currents Weather Stations Pressure Air Temp Water Temp Dewpoint Dewpoint Depression Visibility Wind Speed Wind Dir Waves Ship Positions

APL Coral

Owner: APL Maritime Ltd., Bethesda, MD. More information available from US FCC via Universal Licensing System and Coast Guard Vessel Documentation Center.

Last reported at 2017-May-06 03:30 UTC. Time now 2017-Jun-23 02:00 UTC.
Position N 22°30' E 119°52'.
Warning: this ship's position is 47 days out of date.

Length 274 m; draft 13 m.

Type: Cargo ship. MMSI: 367478280.

Date/timePositionNaut miles runAvg speedWind from/ knotsBaromVisibWave heightAir tempDewpointWater temp
2017-May-06 03:30N 22°30' E 119°52'714.6
2017-May-06 03:00N 22°31' E 119°59'714.6
2017-May-06 02:31N 22°32' E 120°07'714.6
2017-May-06 02:01N 22°33' E 120°15'4 7.3
2017-May-06 01:29N 22°34' E 120°19'1 1.4
2017-May-06 01:00N 22°34' E 120°18'0 0.0
2017-May-06 00:23N 22°34' E 120°18'0 0.0
2017-May-05 23:58N 22°34' E 120°18'0 0.0
2017-May-05 23:25N 22°34' E 120°18'0 0.0
2017-May-05 22:58N 22°34' E 120°18'0 0.0
2017-May-05 22:25N 22°34' E 120°18'0 0.0
2017-May-05 21:58N 22°34' E 120°18'0 0.0
2017-May-05 18:43N 22°34' E 120°18'0 0.0
2017-May-05 18:22N 22°34' E 120°18'0 0.0
2017-May-05 17:40N 22°34' E 120°18'0 0.0
2017-May-05 16:31N 22°34' E 120°18'0 0.1
2017-May-05 16:28N 22°34' E 120°18'0 0.0
2017-May-05 15:58N 22°34' E 120°18'0 0.0
2017-May-05 15:28N 22°34' E 120°18'0 0.0
2017-May-05 13:45N 22°34' E 120°18'0 0.0
2017-May-05 13:18N 22°34' E 120°18'0 0.0
2017-May-05 12:45N 22°34' E 120°18'0 0.2
2017-May-05 12:27N 22°34' E 120°19'0 0.1
2017-May-05 12:00N 22°34' E 120°18'0 0.0
2017-May-05 11:30N 22°34' E 120°18'0 0.0
2017-May-05 11:00N 22°34' E 120°18'0 0.0
2017-May-05 10:30N 22°34' E 120°18'0 0.0
2017-May-05 09:57N 22°34' E 120°18'1 1.2
2017-May-05 09:28N 22°34' E 120°19'0 0.0
2017-May-05 08:58N 22°34' E 120°19'0 0.0
2017-May-05 08:28N 22°34' E 120°19'0 0.0
2017-May-05 07:58N 22°34' E 120°19'0 0.0
2017-May-05 07:16N 22°34' E 120°19'0 0.0
2017-May-05 05:43N 22°34' E 120°19'0 0.1
2017-May-05 05:28N 22°34' E 120°19'0 0.0
2017-May-05 04:58N 22°34' E 120°19'0 0.0
2017-May-05 04:28N 22°34' E 120°19'0 0.0
2017-May-05 03:55N 22°34' E 120°19'0 0.0
2017-May-05 03:25N 22°34' E 120°19'0 0.0
2017-May-05 02:58N 22°34' E 120°19'0 0.0
2017-May-05 02:28N 22°34' E 120°19'0 0.0
2017-May-05 01:55N 22°34' E 120°19'0 0.0
2017-May-05 01:28N 22°34' E 120°19'0 0.1
2017-May-05 01:00N 22°34' E 120°19'2 4.8
2017-May-05 00:30N 22°33' E 120°17'1 1.2
2017-May-05 00:00N 22°32' E 120°16'0 0.2
2017-May-04 23:29N 22°32' E 120°16'3 6.8
2017-May-04 23:00N 22°32' E 120°13'510.3
2017-May-04 22:30N 22°33' E 120°07'4 8.1
2017-May-04 22:00N 22°34' E 120°03'3 5.9
2017-May-04 21:28N 22°37' E 120°01'715.4
2017-May-04 20:59N 22°43' E 119°57'  
2017-Apr-30 22:40N 32°41' E 127°06'316.6
2017-Apr-30 22:28N 32°39' E 127°04'7517.9
2017-Apr-30 18:16N 31°41' E 126°07'  
Track history (hours):
 
Tides and Currents Weather Stations Pressure Air Temp Water Temp Dewpoint Dewpoint Depression Visibility Wind Speed Wind Dir Waves Ship Positions

APL Coral

Owner: APL Maritime Ltd., Bethesda, MD. More information available from US FCC via Universal Licensing System and Coast Guard Vessel Documentation Center.

Last reported at 2017-May-06 03:30 UTC. Time now 2017-Jun-23 02:00 UTC.
Position N 22°30' E 119°52'.
Warning: this ship's position is 47 days out of date.

Length 274 m; draft 13 m.

Type: Cargo ship. MMSI: 367478280.

Date/timePositionNaut miles runAvg speedWind from/ knotsBaromVisibWave heightAir tempDewpointWater temp
2017-May-06 03:30N 22°30' E 119°52'714.6
2017-May-06 03:00N 22°31' E 119°59'714.6
2017-May-06 02:31N 22°32' E 120°07'714.6
2017-May-06 02:01N 22°33' E 120°15'4 7.3
2017-May-06 01:29N 22°34' E 120°19'1 1.4
2017-May-06 01:00N 22°34' E 120°18'0 0.0
2017-May-06 00:23N 22°34' E 120°18'0 0.0
2017-May-05 23:58N 22°34' E 120°18'0 0.0
2017-May-05 23:25N 22°34' E 120°18'0 0.0
2017-May-05 22:58N 22°34' E 120°18'0 0.0
2017-May-05 22:25N 22°34' E 120°18'0 0.0
2017-May-05 21:58N 22°34' E 120°18'0 0.0
2017-May-05 18:43N 22°34' E 120°18'0 0.0
2017-May-05 18:22N 22°34' E 120°18'0 0.0
2017-May-05 17:40N 22°34' E 120°18'0 0.0
2017-May-05 16:31N 22°34' E 120°18'0 0.1
2017-May-05 16:28N 22°34' E 120°18'0 0.0
2017-May-05 15:58N 22°34' E 120°18'0 0.0
2017-May-05 15:28N 22°34' E 120°18'0 0.0
2017-May-05 13:45N 22°34' E 120°18'0 0.0
2017-May-05 13:18N 22°34' E 120°18'0 0.0
2017-May-05 12:45N 22°34' E 120°18'0 0.2
2017-May-05 12:27N 22°34' E 120°19'0 0.1
2017-May-05 12:00N 22°34' E 120°18'0 0.0
2017-May-05 11:30N 22°34' E 120°18'0 0.0
2017-May-05 11:00N 22°34' E 120°18'0 0.0
2017-May-05 10:30N 22°34' E 120°18'0 0.0
2017-May-05 09:57N 22°34' E 120°18'1 1.2
2017-May-05 09:28N 22°34' E 120°19'0 0.0
2017-May-05 08:58N 22°34' E 120°19'0 0.0
2017-May-05 08:28N 22°34' E 120°19'0 0.0
2017-May-05 07:58N 22°34' E 120°19'0 0.0
2017-May-05 07:16N 22°34' E 120°19'0 0.0
2017-May-05 05:43N 22°34' E 120°19'0 0.1
2017-May-05 05:28N 22°34' E 120°19'0 0.0
2017-May-05 04:58N 22°34' E 120°19'0 0.0
2017-May-05 04:28N 22°34' E 120°19'0 0.0
2017-May-05 03:55N 22°34' E 120°19'0 0.0
2017-May-05 03:25N 22°34' E 120°19'0 0.0
2017-May-05 02:58N 22°34' E 120°19'0 0.0
2017-May-05 02:28N 22°34' E 120°19'0 0.0
2017-May-05 01:55N 22°34' E 120°19'0 0.0
2017-May-05 01:28N 22°34' E 120°19'0 0.1
2017-May-05 01:00N 22°34' E 120°19'2 4.8
2017-May-05 00:30N 22°33' E 120°17'1 1.2
2017-May-05 00:00N 22°32' E 120°16'0 0.2
2017-May-04 23:29N 22°32' E 120°16'3 6.8
2017-May-04 23:00N 22°32' E 120°13'510.3
2017-May-04 22:30N 22°33' E 120°07'4 8.1
2017-May-04 22:00N 22°34' E 120°03'3 5.9
2017-May-04 21:28N 22°37' E 120°01'715.4
2017-May-04 20:59N 22°43' E 119°57'  
2017-Apr-30 22:40N 32°41' E 127°06'316.6
2017-Apr-30 22:28N 32°39' E 127°04'7517.9
2017-Apr-30 18:16N 31°41' E 126°07'  

Dump ship's entire track history